sensor_id;sensor_type;location;lat;lon;timestamp;temperature;humidity
40676;DHT22;26359;48.750;9.314;2023-03-24T00:02:09;13.80;99.90
40676;DHT22;26359;48.750;9.314;2023-03-24T00:04:35;13.80;99.90
40676;DHT22;26359;48.750;9.314;2023-03-24T00:07:01;13.80;99.90
40676;DHT22;26359;48.750;9.314;2023-03-24T00:09:29;13.80;99.90
40676;DHT22;26359;48.750;9.314;2023-03-24T00:11:58;13.80;99.90
40676;DHT22;26359;48.750;9.314;2023-03-24T00:14:24;13.90;99.90
40676;DHT22;26359;48.750;9.314;2023-03-24T00:16:50;13.90;99.90
40676;DHT22;26359;48.750;9.314;2023-03-24T00:19:17;13.90;99.90
40676;DHT22;26359;48.750;9.314;2023-03-24T00:21:44;13.80;99.90
40676;DHT22;26359;48.750;9.314;2023-03-24T00:24:10;13.90;99.90
40676;DHT22;26359;48.750;9.314;2023-03-24T00:26:39;13.90;99.90
40676;DHT22;26359;48.750;9.314;2023-03-24T00:29:09;13.90;99.90
40676;DHT22;26359;48.750;9.314;2023-03-24T00:31:36;13.90;99.90
40676;DHT22;26359;48.750;9.314;2023-03-24T00:34:07;14.00;99.90
40676;DHT22;26359;48.750;9.314;2023-03-24T00:36:33;13.90;99.90
40676;DHT22;26359;48.750;9.314;2023-03-24T00:38:59;13.90;99.90
40676;DHT22;26359;48.750;9.314;2023-03-24T00:41:25;13.90;99.90
40676;DHT22;26359;48.750;9.314;2023-03-24T00:43:57;13.80;99.90
40676;DHT22;26359;48.750;9.314;2023-03-24T00:46:24;13.70;99.90
40676;DHT22;26359;48.750;9.314;2023-03-24T00:48:59;13.70;99.90
40676;DHT22;26359;48.750;9.314;2023-03-24T00:51:33;13.70;99.90
40676;DHT22;26359;48.750;9.314;2023-03-24T00:54:00;13.80;99.90
40676;DHT22;26359;48.750;9.314;2023-03-24T00:56:27;13.80;99.90
40676;DHT22;26359;48.750;9.314;2023-03-24T00:58:54;13.80;99.90
40676;DHT22;26359;48.750;9.314;2023-03-24T01:01:25;13.70;99.90
40676;DHT22;26359;48.750;9.314;2023-03-24T01:03:51;13.70;99.90
40676;DHT22;26359;48.750;9.314;2023-03-24T01:06:18;13.70;99.90
40676;DHT22;26359;48.750;9.314;2023-03-24T01:08:46;13.60;99.90
40676;DHT22;26359;48.750;9.314;2023-03-24T01:11:13;13.50;99.90
40676;DHT22;26359;48.750;9.314;2023-03-24T01:13:39;13.50;99.90
40676;DHT22;26359;48.750;9.314;2023-03-24T01:16:06;13.40;99.90
40676;DHT22;26359;48.750;9.314;2023-03-24T01:18:32;13.30;99.90
40676;DHT22;26359;48.750;9.314;2023-03-24T01:20:59;13.30;99.90
40676;DHT22;26359;48.750;9.314;2023-03-24T01:23:26;13.20;99.90
40676;DHT22;26359;48.750;9.314;2023-03-24T01:25:52;13.20;99.90
40676;DHT22;26359;48.750;9.314;2023-03-24T01:28:21;13.20;99.90
40676;DHT22;26359;48.750;9.314;2023-03-24T01:30:52;13.20;99.90
40676;DHT22;26359;48.750;9.314;2023-03-24T01:33:19;13.20;99.90
40676;DHT22;26359;48.750;9.314;2023-03-24T01:35:45;13.20;99.90
40676;DHT22;26359;48.750;9.314;2023-03-24T01:38:11;13.20;99.90
40676;DHT22;26359;48.750;9.314;2023-03-24T01:40:40;13.20;99.90
40676;DHT22;26359;48.750;9.314;2023-03-24T01:43:09;13.20;99.90
40676;DHT22;26359;48.750;9.314;2023-03-24T01:48:30;13.20;99.90
40676;DHT22;26359;48.750;9.314;2023-03-24T01:51:22;13.20;99.90
40676;DHT22;26359;48.750;9.314;2023-03-24T01:53:57;13.20;99.90
40676;DHT22;26359;48.750;9.314;2023-03-24T01:56:24;13.20;99.90
40676;DHT22;26359;48.750;9.314;2023-03-24T01:58:55;13.20;99.90
40676;DHT22;26359;48.750;9.314;2023-03-24T02:01:22;13.10;99.90
40676;DHT22;26359;48.750;9.314;2023-03-24T02:03:50;13.10;99.90
40676;DHT22;26359;48.750;9.314;2023-03-24T02:06:17;13.00;99.90
40676;DHT22;26359;48.750;9.314;2023-03-24T02:08:51;13.10;99.90
40676;DHT22;26359;48.750;9.314;2023-03-24T02:11:18;13.00;99.90
40676;DHT22;26359;48.750;9.314;2023-03-24T02:13:44;13.00;99.90
40676;DHT22;26359;48.750;9.314;2023-03-24T02:25:04;13.30;99.90
40676;DHT22;26359;48.750;9.314;2023-03-24T02:33:19;13.30;99.90
40676;DHT22;26359;48.750;9.314;2023-03-24T02:38:55;13.40;99.90
40676;DHT22;26359;48.750;9.314;2023-03-24T02:47:00;13.50;99.90
40676;DHT22;26359;48.750;9.314;2023-03-24T02:49:45;13.50;99.90
40676;DHT22;26359;48.750;9.314;2023-03-24T02:52:30;13.50;99.90
40676;DHT22;26359;48.750;9.314;2023-03-24T03:03:19;13.60;99.90
40676;DHT22;26359;48.750;9.314;2023-03-24T03:05:46;13.60;99.90
40676;DHT22;26359;48.750;9.314;2023-03-24T03:08:15;13.70;99.90
40676;DHT22;26359;48.750;9.314;2023-03-24T03:10:45;13.70;99.90
40676;DHT22;26359;48.750;9.314;2023-03-24T03:13:20;13.70;99.90
40676;DHT22;26359;48.750;9.314;2023-03-24T03:15:52;13.70;99.90
40676;DHT22;26359;48.750;9.314;2023-03-24T03:18:44;13.60;99.90
40676;DHT22;26359;48.750;9.314;2023-03-24T03:21:13;13.60;99.90
40676;DHT22;26359;48.750;9.314;2023-03-24T03:23:45;13.60;99.90
40676;DHT22;26359;48.750;9.314;2023-03-24T03:26:14;13.70;99.90
40676;DHT22;26359;48.750;9.314;2023-03-24T03:28:43;13.70;99.90
40676;DHT22;26359;48.750;9.314;2023-03-24T03:31:17;13.80;99.90
40676;DHT22;26359;48.750;9.314;2023-03-24T03:33:52;13.80;99.90
40676;DHT22;26359;48.750;9.314;2023-03-24T03:36:21;13.70;99.90
40676;DHT22;26359;48.750;9.314;2023-03-24T03:41:32;13.70;99.90
40676;DHT22;26359;48.750;9.314;2023-03-24T03:43:59;13.70;99.90
40676;DHT22;26359;48.750;9.314;2023-03-24T03:46:25;13.70;99.90
40676;DHT22;26359;48.750;9.314;2023-03-24T03:48:51;13.70;99.90
40676;DHT22;26359;48.750;9.314;2023-03-24T03:51:17;13.80;99.90
40676;DHT22;26359;48.750;9.314;2023-03-24T03:53:47;13.70;99.90
40676;DHT22;26359;48.750;9.314;2023-03-24T03:56:19;13.70;99.90
40676;DHT22;26359;48.750;9.314;2023-03-24T03:58:46;13.70;99.90
40676;DHT22;26359;48.750;9.314;2023-03-24T04:01:15;13.70;99.90
40676;DHT22;26359;48.750;9.314;2023-03-24T04:13:06;13.70;99.90
40676;DHT22;26359;48.750;9.314;2023-03-24T04:21:32;13.60;99.90
40676;DHT22;26359;48.750;9.314;2023-03-24T04:24:37;13.70;99.90
40676;DHT22;26359;48.750;9.314;2023-03-24T04:30:02;13.90;99.90
40676;DHT22;26359;48.750;9.314;2023-03-24T04:33:03;13.90;99.90
40676;DHT22;26359;48.750;9.314;2023-03-24T04:35:33;13.90;99.90
40676;DHT22;26359;48.750;9.314;2023-03-24T04:38:03;13.90;99.90
40676;DHT22;26359;48.750;9.314;2023-03-24T04:40:34;13.90;99.90
40676;DHT22;26359;48.750;9.314;2023-03-24T04:43:05;13.80;99.90
40676;DHT22;26359;48.750;9.314;2023-03-24T04:45:33;13.80;99.90
40676;DHT22;26359;48.750;9.314;2023-03-24T04:48:02;13.80;99.90
40676;DHT22;26359;48.750;9.314;2023-03-24T04:50:34;13.80;99.90
40676;DHT22;26359;48.750;9.314;2023-03-24T04:53:00;13.80;99.90
40676;DHT22;26359;48.750;9.314;2023-03-24T04:58:14;13.80;99.90
40676;DHT22;26359;48.750;9.314;2023-03-24T05:00:40;14.00;99.90
40676;DHT22;26359;48.750;9.314;2023-03-24T05:03:08;14.10;99.90
40676;DHT22;26359;48.750;9.314;2023-03-24T05:05:39;14.10;99.90
40676;DHT22;26359;48.750;9.314;2023-03-24T05:08:05;14.10;99.90
40676;DHT22;26359;48.750;9.314;2023-03-24T05:10:31;14.10;99.90
40676;DHT22;26359;48.750;9.314;2023-03-24T05:12:56;14.20;99.90
40676;DHT22;26359;48.750;9.314;2023-03-24T05:15:22;14.20;99.90
40676;DHT22;26359;48.750;9.314;2023-03-24T05:17:47;14.20;99.90
40676;DHT22;26359;48.750;9.314;2023-03-24T05:20:13;14.20;99.90
40676;DHT22;26359;48.750;9.314;2023-03-24T05:22:39;14.30;99.90
40676;DHT22;26359;48.750;9.314;2023-03-24T05:25:05;14.30;99.90
40676;DHT22;26359;48.750;9.314;2023-03-24T05:27:31;14.20;99.90
40676;DHT22;26359;48.750;9.314;2023-03-24T05:29:57;14.20;99.90
40676;DHT22;26359;48.750;9.314;2023-03-24T05:32:23;14.20;99.90
40676;DHT22;26359;48.750;9.314;2023-03-24T05:34:48;14.20;99.90
40676;DHT22;26359;48.750;9.314;2023-03-24T05:37:14;14.40;99.90
40676;DHT22;26359;48.750;9.314;2023-03-24T05:39:42;14.40;99.90
40676;DHT22;26359;48.750;9.314;2023-03-24T05:42:08;14.50;99.90
40676;DHT22;26359;48.750;9.314;2023-03-24T05:44:34;14.50;99.90
40676;DHT22;26359;48.750;9.314;2023-03-24T05:47:00;14.50;99.90
40676;DHT22;26359;48.750;9.314;2023-03-24T05:49:26;14.50;99.90
40676;DHT22;26359;48.750;9.314;2023-03-24T05:51:51;14.40;99.90
40676;DHT22;26359;48.750;9.314;2023-03-24T05:54:17;14.40;99.90
40676;DHT22;26359;48.750;9.314;2023-03-24T05:56:42;14.40;99.90
40676;DHT22;26359;48.750;9.314;2023-03-24T05:59:08;14.30;99.90
40676;DHT22;26359;48.750;9.314;2023-03-24T06:01:35;14.30;99.90
40676;DHT22;26359;48.750;9.314;2023-03-24T06:04:01;14.30;99.90
40676;DHT22;26359;48.750;9.314;2023-03-24T06:06:26;14.20;99.90
40676;DHT22;26359;48.750;9.314;2023-03-24T06:08:52;14.20;99.90
40676;DHT22;26359;48.750;9.314;2023-03-24T06:11:19;14.20;99.90
40676;DHT22;26359;48.750;9.314;2023-03-24T06:13:44;14.10;99.90
40676;DHT22;26359;48.750;9.314;2023-03-24T06:16:10;14.10;99.90
40676;DHT22;26359;48.750;9.314;2023-03-24T06:18:36;14.00;99.90
40676;DHT22;26359;48.750;9.314;2023-03-24T06:21:05;14.00;99.90
40676;DHT22;26359;48.750;9.314;2023-03-24T06:23:31;13.90;99.90
40676;DHT22;26359;48.750;9.314;2023-03-24T06:25:58;13.80;99.90
40676;DHT22;26359;48.750;9.314;2023-03-24T06:28:26;13.90;99.90
40676;DHT22;26359;48.750;9.314;2023-03-24T06:30:55;13.90;99.90
40676;DHT22;26359;48.750;9.314;2023-03-24T06:33:23;13.80;99.90
40676;DHT22;26359;48.750;9.314;2023-03-24T06:35:51;13.80;99.90
40676;DHT22;26359;48.750;9.314;2023-03-24T06:38:16;13.80;99.90
40676;DHT22;26359;48.750;9.314;2023-03-24T06:40:42;13.80;99.90
40676;DHT22;26359;48.750;9.314;2023-03-24T06:43:08;13.70;99.90
40676;DHT22;26359;48.750;9.314;2023-03-24T06:45:33;13.70;99.90
40676;DHT22;26359;48.750;9.314;2023-03-24T06:47:59;13.60;99.90
40676;DHT22;26359;48.750;9.314;2023-03-24T06:50:26;13.60;99.90
40676;DHT22;26359;48.750;9.314;2023-03-24T06:52:57;13.50;99.90
40676;DHT22;26359;48.750;9.314;2023-03-24T06:55:23;13.50;99.90
40676;DHT22;26359;48.750;9.314;2023-03-24T06:57:48;13.50;99.90
40676;DHT22;26359;48.750;9.314;2023-03-24T07:00:14;13.50;99.90
40676;DHT22;26359;48.750;9.314;2023-03-24T07:02:40;13.50;99.90
40676;DHT22;26359;48.750;9.314;2023-03-24T07:05:07;13.40;99.90
40676;DHT22;26359;48.750;9.314;2023-03-24T07:07:34;13.40;99.90
40676;DHT22;26359;48.750;9.314;2023-03-24T07:10:00;13.40;99.90
40676;DHT22;26359;48.750;9.314;2023-03-24T07:12:26;13.40;99.90
40676;DHT22;26359;48.750;9.314;2023-03-24T07:14:52;13.40;99.90
40676;DHT22;26359;48.750;9.314;2023-03-24T07:17:17;13.40;99.90
40676;DHT22;26359;48.750;9.314;2023-03-24T07:19:43;13.40;99.90
40676;DHT22;26359;48.750;9.314;2023-03-24T07:22:12;13.40;99.90
40676;DHT22;26359;48.750;9.314;2023-03-24T07:24:38;13.40;99.90
40676;DHT22;26359;48.750;9.314;2023-03-24T07:27:03;13.40;99.90
40676;DHT22;26359;48.750;9.314;2023-03-24T07:29:29;13.40;99.90
40676;DHT22;26359;48.750;9.314;2023-03-24T07:31:55;13.40;99.90
40676;DHT22;26359;48.750;9.314;2023-03-24T07:34:23;13.30;99.90
40676;DHT22;26359;48.750;9.314;2023-03-24T07:36:50;13.20;99.90
40676;DHT22;26359;48.750;9.314;2023-03-24T07:39:15;13.20;99.90
40676;DHT22;26359;48.750;9.314;2023-03-24T07:41:41;13.10;99.90
40676;DHT22;26359;48.750;9.314;2023-03-24T07:44:07;13.10;99.90
40676;DHT22;26359;48.750;9.314;2023-03-24T07:46:33;13.00;99.90
40676;DHT22;26359;48.750;9.314;2023-03-24T07:48:59;13.10;99.90
40676;DHT22;26359;48.750;9.314;2023-03-24T07:51:24;13.00;99.90
40676;DHT22;26359;48.750;9.314;2023-03-24T07:53:50;12.90;99.90
40676;DHT22;26359;48.750;9.314;2023-03-24T07:56:16;13.00;99.90
40676;DHT22;26359;48.750;9.314;2023-03-24T07:58:41;12.90;99.90
40676;DHT22;26359;48.750;9.314;2023-03-24T08:01:07;12.90;99.90
40676;DHT22;26359;48.750;9.314;2023-03-24T08:03:35;12.90;99.90
40676;DHT22;26359;48.750;9.314;2023-03-24T08:06:01;12.80;99.90
40676;DHT22;26359;48.750;9.314;2023-03-24T08:08:27;12.80;99.90
40676;DHT22;26359;48.750;9.314;2023-03-24T08:10:52;12.80;99.90
40676;DHT22;26359;48.750;9.314;2023-03-24T08:13:18;12.80;99.90
40676;DHT22;26359;48.750;9.314;2023-03-24T08:15:44;12.80;99.90
40676;DHT22;26359;48.750;9.314;2023-03-24T08:18:09;12.90;99.90
40676;DHT22;26359;48.750;9.314;2023-03-24T08:20:35;12.90;99.90
40676;DHT22;26359;48.750;9.314;2023-03-24T08:23:01;12.90;99.90
40676;DHT22;26359;48.750;9.314;2023-03-24T08:25:29;12.90;99.90
40676;DHT22;26359;48.750;9.314;2023-03-24T08:27:55;12.90;99.90
40676;DHT22;26359;48.750;9.314;2023-03-24T08:30:22;12.90;99.90
40676;DHT22;26359;48.750;9.314;2023-03-24T08:32:57;12.90;99.90
40676;DHT22;26359;48.750;9.314;2023-03-24T08:35:27;13.00;99.90
40676;DHT22;26359;48.750;9.314;2023-03-24T08:37:52;13.00;99.90
40676;DHT22;26359;48.750;9.314;2023-03-24T08:40:21;13.00;99.90
40676;DHT22;26359;48.750;9.314;2023-03-24T08:42:50;13.00;99.90
40676;DHT22;26359;48.750;9.314;2023-03-24T08:45:17;13.00;99.90
40676;DHT22;26359;48.750;9.314;2023-03-24T08:47:46;13.00;99.90
40676;DHT22;26359;48.750;9.314;2023-03-24T08:50:11;13.10;99.90
40676;DHT22;26359;48.750;9.314;2023-03-24T08:52:37;13.00;99.90
40676;DHT22;26359;48.750;9.314;2023-03-24T08:55:03;13.00;99.90
40676;DHT22;26359;48.750;9.314;2023-03-24T08:57:30;13.00;99.90
40676;DHT22;26359;48.750;9.314;2023-03-24T08:59:56;13.00;99.90
40676;DHT22;26359;48.750;9.314;2023-03-24T09:02:21;13.00;99.90
40676;DHT22;26359;48.750;9.314;2023-03-24T09:04:47;13.10;99.90
40676;DHT22;26359;48.750;9.314;2023-03-24T09:07:16;13.10;99.90
40676;DHT22;26359;48.750;9.314;2023-03-24T09:09:42;13.30;99.90
40676;DHT22;26359;48.750;9.314;2023-03-24T09:12:07;13.30;99.90
40676;DHT22;26359;48.750;9.314;2023-03-24T09:14:34;13.40;99.90
40676;DHT22;26359;48.750;9.314;2023-03-24T09:16:59;13.40;99.90
40676;DHT22;26359;48.750;9.314;2023-03-24T09:19:25;13.40;99.90
40676;DHT22;26359;48.750;9.314;2023-03-24T09:21:50;13.40;99.90
40676;DHT22;26359;48.750;9.314;2023-03-24T09:24:16;13.40;99.90
40676;DHT22;26359;48.750;9.314;2023-03-24T09:26:42;13.50;99.90
40676;DHT22;26359;48.750;9.314;2023-03-24T09:29:07;13.50;99.90
40676;DHT22;26359;48.750;9.314;2023-03-24T09:31:33;13.50;99.90
40676;DHT22;26359;48.750;9.314;2023-03-24T09:33:58;13.60;99.90
40676;DHT22;26359;48.750;9.314;2023-03-24T09:36:25;13.70;99.90
40676;DHT22;26359;48.750;9.314;2023-03-24T09:38:51;13.80;99.90
40676;DHT22;26359;48.750;9.314;2023-03-24T09:41:22;13.80;99.90
40676;DHT22;26359;48.750;9.314;2023-03-24T09:44:03;13.80;99.90
40676;DHT22;26359;48.750;9.314;2023-03-24T09:46:40;13.90;99.90
40676;DHT22;26359;48.750;9.314;2023-03-24T09:49:11;14.00;99.90
40676;DHT22;26359;48.750;9.314;2023-03-24T09:51:43;14.10;99.90
40676;DHT22;26359;48.750;9.314;2023-03-24T09:54:53;14.20;99.90
40676;DHT22;26359;48.750;9.314;2023-03-24T09:57:41;14.20;99.90
40676;DHT22;26359;48.750;9.314;2023-03-24T10:00:18;14.30;99.90
40676;DHT22;26359;48.750;9.314;2023-03-24T10:02:44;14.30;99.90
40676;DHT22;26359;48.750;9.314;2023-03-24T10:05:39;14.40;99.90
40676;DHT22;26359;48.750;9.314;2023-03-24T10:08:16;14.40;99.90
40676;DHT22;26359;48.750;9.314;2023-03-24T10:14:16;14.70;99.90
40676;DHT22;26359;48.750;9.314;2023-03-24T10:17:07;14.90;99.90
40676;DHT22;26359;48.750;9.314;2023-03-24T10:19:43;14.90;99.90
40676;DHT22;26359;48.750;9.314;2023-03-24T10:28:00;14.90;99.90
40676;DHT22;26359;48.750;9.314;2023-03-24T10:30:30;14.90;99.90
40676;DHT22;26359;48.750;9.314;2023-03-24T10:32:57;15.00;99.90
40676;DHT22;26359;48.750;9.314;2023-03-24T10:36:03;15.10;99.90
40676;DHT22;26359;48.750;9.314;2023-03-24T10:38:30;15.20;99.90
40676;DHT22;26359;48.750;9.314;2023-03-24T10:40:55;15.30;99.90
40676;DHT22;26359;48.750;9.314;2023-03-24T10:43:22;15.30;99.90
40676;DHT22;26359;48.750;9.314;2023-03-24T10:45:51;15.30;99.90
40676;DHT22;26359;48.750;9.314;2023-03-24T10:51:05;15.40;99.90
40676;DHT22;26359;48.750;9.314;2023-03-24T10:53:31;15.30;99.90
40676;DHT22;26359;48.750;9.314;2023-03-24T10:55:58;15.20;99.90
40676;DHT22;26359;48.750;9.314;2023-03-24T10:58:41;15.30;99.90
40676;DHT22;26359;48.750;9.314;2023-03-24T11:03:48;15.20;99.90
40676;DHT22;26359;48.750;9.314;2023-03-24T11:06:19;15.30;99.90
40676;DHT22;26359;48.750;9.314;2023-03-24T11:08:46;15.40;99.90
40676;DHT22;26359;48.750;9.314;2023-03-24T11:11:29;15.40;99.90
40676;DHT22;26359;48.750;9.314;2023-03-24T11:13:58;15.40;99.90
40676;DHT22;26359;48.750;9.314;2023-03-24T11:16:36;15.50;99.90
40676;DHT22;26359;48.750;9.314;2023-03-24T11:19:05;15.50;99.90
40676;DHT22;26359;48.750;9.314;2023-03-24T11:21:34;15.60;99.90
40676;DHT22;26359;48.750;9.314;2023-03-24T11:24:10;15.60;99.90
40676;DHT22;26359;48.750;9.314;2023-03-24T11:26:38;15.80;99.90
40676;DHT22;26359;48.750;9.314;2023-03-24T11:29:13;16.00;99.90
40676;DHT22;26359;48.750;9.314;2023-03-24T11:31:40;16.20;99.90
40676;DHT22;26359;48.750;9.314;2023-03-24T11:36:48;16.20;99.90
40676;DHT22;26359;48.750;9.314;2023-03-24T11:39:23;16.20;99.90
40676;DHT22;26359;48.750;9.314;2023-03-24T11:44:20;16.10;99.90
40676;DHT22;26359;48.750;9.314;2023-03-24T11:46:55;16.00;99.90
40676;DHT22;26359;48.750;9.314;2023-03-24T11:49:25;15.90;99.90
40676;DHT22;26359;48.750;9.314;2023-03-24T11:51:53;15.80;99.90
40676;DHT22;26359;48.750;9.314;2023-03-24T11:54:22;15.80;99.90
40676;DHT22;26359;48.750;9.314;2023-03-24T11:57:13;15.80;99.90
40676;DHT22;26359;48.750;9.314;2023-03-24T12:10:27;15.70;99.90
40676;DHT22;26359;48.750;9.314;2023-03-24T12:18:46;15.80;99.90
40676;DHT22;26359;48.750;9.314;2023-03-24T12:21:41;15.90;99.90
40676;DHT22;26359;48.750;9.314;2023-03-24T12:26:52;15.70;99.90
40676;DHT22;26359;48.750;9.314;2023-03-24T12:29:40;15.60;99.90
40676;DHT22;26359;48.750;9.314;2023-03-24T12:32:29;15.60;99.90
40676;DHT22;26359;48.750;9.314;2023-03-24T12:35:18;15.70;99.90
40676;DHT22;26359;48.750;9.314;2023-03-24T12:37:51;15.60;99.90
40676;DHT22;26359;48.750;9.314;2023-03-24T12:40:49;15.50;99.90
40676;DHT22;26359;48.750;9.314;2023-03-24T12:43:37;15.30;99.90
40676;DHT22;26359;48.750;9.314;2023-03-24T12:49:11;15.20;99.90
40676;DHT22;26359;48.750;9.314;2023-03-24T12:54:31;15.20;99.90
40676;DHT22;26359;48.750;9.314;2023-03-24T12:57:06;15.10;99.90
40676;DHT22;26359;48.750;9.314;2023-03-24T12:59:45;15.20;99.90
40676;DHT22;26359;48.750;9.314;2023-03-24T13:02:35;15.20;99.90
40676;DHT22;26359;48.750;9.314;2023-03-24T13:05:06;15.20;99.90
40676;DHT22;26359;48.750;9.314;2023-03-24T13:07:35;15.30;99.90
40676;DHT22;26359;48.750;9.314;2023-03-24T13:10:14;15.30;99.90
40676;DHT22;26359;48.750;9.314;2023-03-24T13:15:23;15.40;99.90
40676;DHT22;26359;48.750;9.314;2023-03-24T13:31:22;15.20;99.90
40676;DHT22;26359;48.750;9.314;2023-03-24T13:33:48;15.10;99.90
40676;DHT22;26359;48.750;9.314;2023-03-24T13:36:46;15.10;99.90
40676;DHT22;26359;48.750;9.314;2023-03-24T13:39:16;15.10;99.90
40676;DHT22;26359;48.750;9.314;2023-03-24T13:41:49;15.00;99.90
40676;DHT22;26359;48.750;9.314;2023-03-24T13:46:41;15.00;99.90
40676;DHT22;26359;48.750;9.314;2023-03-24T13:49:13;14.90;99.90
40676;DHT22;26359;48.750;9.314;2023-03-24T13:51:43;14.90;99.90
40676;DHT22;26359;48.750;9.314;2023-03-24T13:54:19;14.90;99.90
40676;DHT22;26359;48.750;9.314;2023-03-24T13:56:52;14.90;99.90
40676;DHT22;26359;48.750;9.314;2023-03-24T13:59:28;14.90;99.90
40676;DHT22;26359;48.750;9.314;2023-03-24T14:05:04;14.80;99.90
40676;DHT22;26359;48.750;9.314;2023-03-24T14:15:33;14.90;99.90
40676;DHT22;26359;48.750;9.314;2023-03-24T14:23:24;14.60;99.90
40676;DHT22;26359;48.750;9.314;2023-03-24T14:25:57;14.50;99.90
40676;DHT22;26359;48.750;9.314;2023-03-24T14:28:45;14.30;99.90
40676;DHT22;26359;48.750;9.314;2023-03-24T14:36:32;13.90;99.90
40676;DHT22;26359;48.750;9.314;2023-03-24T14:39:31;13.60;99.90
40676;DHT22;26359;48.750;9.314;2023-03-24T14:41:54;13.50;99.90
40676;DHT22;26359;48.750;9.314;2023-03-24T14:47:29;13.30;99.90
40676;DHT22;26359;48.750;9.314;2023-03-24T14:49:56;13.30;99.90
40676;DHT22;26359;48.750;9.314;2023-03-24T14:52:48;13.30;99.90
40676;DHT22;26359;48.750;9.314;2023-03-24T14:55:16;13.30;99.90
40676;DHT22;26359;48.750;9.314;2023-03-24T14:58:00;13.20;99.90
40676;DHT22;26359;48.750;9.314;2023-03-24T15:00:33;13.10;99.90
40676;DHT22;26359;48.750;9.314;2023-03-24T15:03:27;13.10;99.90
40676;DHT22;26359;48.750;9.314;2023-03-24T15:06:08;13.20;99.90
40676;DHT22;26359;48.750;9.314;2023-03-24T15:08:36;13.10;99.90
40676;DHT22;26359;48.750;9.314;2023-03-24T15:11:04;13.10;99.90
40676;DHT22;26359;48.750;9.314;2023-03-24T15:18:54;12.90;99.90
40676;DHT22;26359;48.750;9.314;2023-03-24T15:21:35;12.60;99.90
40676;DHT22;26359;48.750;9.314;2023-03-24T15:24:15;12.50;99.90
40676;DHT22;26359;48.750;9.314;2023-03-24T15:26:48;12.50;99.90
40676;DHT22;26359;48.750;9.314;2023-03-24T15:29:15;12.50;99.90
40676;DHT22;26359;48.750;9.314;2023-03-24T15:31:41;12.50;99.90
40676;DHT22;26359;48.750;9.314;2023-03-24T15:37:00;12.50;99.90
40676;DHT22;26359;48.750;9.314;2023-03-24T15:39:32;12.50;99.90
40676;DHT22;26359;48.750;9.314;2023-03-24T15:41:58;12.50;99.90
40676;DHT22;26359;48.750;9.314;2023-03-24T15:44:29;12.40;99.90
40676;DHT22;26359;48.750;9.314;2023-03-24T15:46:57;12.40;99.90
40676;DHT22;26359;48.750;9.314;2023-03-24T15:49:32;12.40;99.90
40676;DHT22;26359;48.750;9.314;2023-03-24T15:52:00;12.50;99.90
40676;DHT22;26359;48.750;9.314;2023-03-24T15:54:29;12.50;99.90
40676;DHT22;26359;48.750;9.314;2023-03-24T15:57:20;12.40;99.90
40676;DHT22;26359;48.750;9.314;2023-03-24T15:59:54;12.50;99.90
40676;DHT22;26359;48.750;9.314;2023-03-24T16:02:33;12.30;99.90
40676;DHT22;26359;48.750;9.314;2023-03-24T16:05:09;12.30;99.90
40676;DHT22;26359;48.750;9.314;2023-03-24T16:07:36;12.20;99.90
40676;DHT22;26359;48.750;9.314;2023-03-24T16:10:18;12.20;99.90
40676;DHT22;26359;48.750;9.314;2023-03-24T16:12:49;12.20;99.90
40676;DHT22;26359;48.750;9.314;2023-03-24T16:15:15;12.10;99.90
40676;DHT22;26359;48.750;9.314;2023-03-24T16:17:41;12.10;99.90
40676;DHT22;26359;48.750;9.314;2023-03-24T16:20:17;12.20;99.90
40676;DHT22;26359;48.750;9.314;2023-03-24T16:22:43;12.20;99.90
40676;DHT22;26359;48.750;9.314;2023-03-24T16:25:09;12.20;99.90
40676;DHT22;26359;48.750;9.314;2023-03-24T16:27:34;12.20;99.90
40676;DHT22;26359;48.750;9.314;2023-03-24T16:30:00;12.20;99.90
40676;DHT22;26359;48.750;9.314;2023-03-24T16:32:26;12.20;99.90
40676;DHT22;26359;48.750;9.314;2023-03-24T16:34:51;12.30;99.90
40676;DHT22;26359;48.750;9.314;2023-03-24T16:37:17;12.30;99.90
40676;DHT22;26359;48.750;9.314;2023-03-24T16:39:43;12.30;99.90
40676;DHT22;26359;48.750;9.314;2023-03-24T16:42:08;12.50;99.90
40676;DHT22;26359;48.750;9.314;2023-03-24T16:44:34;12.40;99.90
40676;DHT22;26359;48.750;9.314;2023-03-24T16:46:59;12.50;99.90
40676;DHT22;26359;48.750;9.314;2023-03-24T16:49:25;12.50;99.90
40676;DHT22;26359;48.750;9.314;2023-03-24T16:51:51;12.50;99.90
40676;DHT22;26359;48.750;9.314;2023-03-24T16:54:18;12.40;99.90
40676;DHT22;26359;48.750;9.314;2023-03-24T16:56:44;12.50;99.90
40676;DHT22;26359;48.750;9.314;2023-03-24T16:59:10;12.60;99.90
40676;DHT22;26359;48.750;9.314;2023-03-24T17:01:42;12.70;99.90
40676;DHT22;26359;48.750;9.314;2023-03-24T17:04:15;12.80;99.90
40676;DHT22;26359;48.750;9.314;2023-03-24T17:06:44;12.70;99.90
40676;DHT22;26359;48.750;9.314;2023-03-24T17:09:11;12.70;99.90
40676;DHT22;26359;48.750;9.314;2023-03-24T17:11:42;12.70;99.90
40676;DHT22;26359;48.750;9.314;2023-03-24T17:14:09;12.70;99.90
40676;DHT22;26359;48.750;9.314;2023-03-24T17:16:41;12.70;99.90
40676;DHT22;26359;48.750;9.314;2023-03-24T17:19:11;12.70;99.90
40676;DHT22;26359;48.750;9.314;2023-03-24T17:24:21;12.50;99.90
40676;DHT22;26359;48.750;9.314;2023-03-24T17:26:48;12.50;99.90
40676;DHT22;26359;48.750;9.314;2023-03-24T17:29:13;12.50;99.90
40676;DHT22;26359;48.750;9.314;2023-03-24T17:31:40;12.60;99.90
40676;DHT22;26359;48.750;9.314;2023-03-24T17:34:12;12.50;99.90
40676;DHT22;26359;48.750;9.314;2023-03-24T17:36:38;12.50;99.90
40676;DHT22;26359;48.750;9.314;2023-03-24T17:39:04;12.50;99.90
40676;DHT22;26359;48.750;9.314;2023-03-24T17:41:30;12.50;99.90
40676;DHT22;26359;48.750;9.314;2023-03-24T17:43:55;12.40;99.90
40676;DHT22;26359;48.750;9.314;2023-03-24T17:46:21;12.40;99.90
40676;DHT22;26359;48.750;9.314;2023-03-24T17:48:46;12.40;99.90
40676;DHT22;26359;48.750;9.314;2023-03-24T17:51:12;12.30;99.90
40676;DHT22;26359;48.750;9.314;2023-03-24T17:53:38;12.20;99.90
40676;DHT22;26359;48.750;9.314;2023-03-24T17:56:04;12.20;99.90
40676;DHT22;26359;48.750;9.314;2023-03-24T17:58:32;12.10;99.90
40676;DHT22;26359;48.750;9.314;2023-03-24T18:00:59;12.20;99.90
40676;DHT22;26359;48.750;9.314;2023-03-24T18:03:26;12.10;99.90
40676;DHT22;26359;48.750;9.314;2023-03-24T18:05:52;12.10;99.90
40676;DHT22;26359;48.750;9.314;2023-03-24T18:08:18;12.10;99.90
40676;DHT22;26359;48.750;9.314;2023-03-24T18:10:44;12.10;99.90
40676;DHT22;26359;48.750;9.314;2023-03-24T18:13:10;12.00;99.90
40676;DHT22;26359;48.750;9.314;2023-03-24T18:15:40;12.00;99.90
40676;DHT22;26359;48.750;9.314;2023-03-24T18:18:05;12.00;99.90
40676;DHT22;26359;48.750;9.314;2023-03-24T18:20:31;11.90;99.90
40676;DHT22;26359;48.750;9.314;2023-03-24T18:22:57;11.90;99.90
40676;DHT22;26359;48.750;9.314;2023-03-24T18:25:22;11.80;99.90